sensor_id;sensor_type;location;lat;lon;timestamp;temperature;humidity
21092;DHT22;10704;42.678;23.288;2023-02-03T00:01:33;2.30;99.90
21092;DHT22;10704;42.678;23.288;2023-02-03T00:03:59;2.30;99.90
21092;DHT22;10704;42.678;23.288;2023-02-03T00:06:25;2.20;99.90
21092;DHT22;10704;42.678;23.288;2023-02-03T00:08:56;2.10;99.90
21092;DHT22;10704;42.678;23.288;2023-02-03T00:11:25;2.00;99.90
21092;DHT22;10704;42.678;23.288;2023-02-03T00:13:51;2.00;99.90
21092;DHT22;10704;42.678;23.288;2023-02-03T00:16:17;1.90;99.90
21092;DHT22;10704;42.678;23.288;2023-02-03T00:18:43;1.90;99.90
21092;DHT22;10704;42.678;23.288;2023-02-03T00:21:08;1.90;99.90
21092;DHT22;10704;42.678;23.288;2023-02-03T00:23:34;1.80;99.90
21092;DHT22;10704;42.678;23.288;2023-02-03T00:26:15;1.80;99.90
21092;DHT22;10704;42.678;23.288;2023-02-03T00:28:42;1.90;99.90
21092;DHT22;10704;42.678;23.288;2023-02-03T00:31:17;1.80;99.90
21092;DHT22;10704;42.678;23.288;2023-02-03T00:33:45;1.80;99.90
21092;DHT22;10704;42.678;23.288;2023-02-03T00:36:11;1.80;99.90
21092;DHT22;10704;42.678;23.288;2023-02-03T00:38:37;1.80;99.90
21092;DHT22;10704;42.678;23.288;2023-02-03T00:41:03;1.80;99.90
21092;DHT22;10704;42.678;23.288;2023-02-03T00:43:29;1.80;99.90
21092;DHT22;10704;42.678;23.288;2023-02-03T00:45:55;1.80;99.90
21092;DHT22;10704;42.678;23.288;2023-02-03T00:48:21;1.90;99.90
21092;DHT22;10704;42.678;23.288;2023-02-03T00:50:47;1.80;99.90
21092;DHT22;10704;42.678;23.288;2023-02-03T00:53:13;1.80;99.90
21092;DHT22;10704;42.678;23.288;2023-02-03T00:55:41;1.70;99.90
21092;DHT22;10704;42.678;23.288;2023-02-03T00:58:07;1.70;99.90
21092;DHT22;10704;42.678;23.288;2023-02-03T01:00:33;1.80;99.90
21092;DHT22;10704;42.678;23.288;2023-02-03T01:02:59;1.80;99.90
21092;DHT22;10704;42.678;23.288;2023-02-03T01:05:25;1.80;99.90
21092;DHT22;10704;42.678;23.288;2023-02-03T01:07:50;1.80;99.90
21092;DHT22;10704;42.678;23.288;2023-02-03T01:10:17;1.80;99.90
21092;DHT22;10704;42.678;23.288;2023-02-03T01:12:42;1.80;99.90
21092;DHT22;10704;42.678;23.288;2023-02-03T01:15:08;1.80;99.90
21092;DHT22;10704;42.678;23.288;2023-02-03T01:17:34;1.80;99.90
21092;DHT22;10704;42.678;23.288;2023-02-03T01:20:00;1.70;99.90
21092;DHT22;10704;42.678;23.288;2023-02-03T01:22:28;1.70;99.90
21092;DHT22;10704;42.678;23.288;2023-02-03T01:24:55;1.60;99.90
21092;DHT22;10704;42.678;23.288;2023-02-03T01:27:21;1.60;99.90
21092;DHT22;10704;42.678;23.288;2023-02-03T01:29:47;1.60;99.90
21092;DHT22;10704;42.678;23.288;2023-02-03T01:32:13;1.60;99.90
21092;DHT22;10704;42.678;23.288;2023-02-03T01:34:39;1.60;99.90
21092;DHT22;10704;42.678;23.288;2023-02-03T01:37:05;1.60;99.90
21092;DHT22;10704;42.678;23.288;2023-02-03T01:39:31;1.60;99.90
21092;DHT22;10704;42.678;23.288;2023-02-03T01:41:56;1.50;99.90
21092;DHT22;10704;42.678;23.288;2023-02-03T01:47:23;1.40;99.90
21092;DHT22;10704;42.678;23.288;2023-02-03T01:52:41;1.40;99.90
21092;DHT22;10704;42.678;23.288;2023-02-03T01:55:10;1.50;99.90
21092;DHT22;10704;42.678;23.288;2023-02-03T01:57:42;1.50;99.90
21092;DHT22;10704;42.678;23.288;2023-02-03T02:00:11;1.50;99.90
21092;DHT22;10704;42.678;23.288;2023-02-03T02:02:42;1.50;99.90
21092;DHT22;10704;42.678;23.288;2023-02-03T02:07:41;1.60;99.90
21092;DHT22;10704;42.678;23.288;2023-02-03T02:10:08;1.50;99.90
21092;DHT22;10704;42.678;23.288;2023-02-03T02:12:34;1.50;99.90
21092;DHT22;10704;42.678;23.288;2023-02-03T02:15:01;1.60;99.90
21092;DHT22;10704;42.678;23.288;2023-02-03T02:20:12;1.60;99.90
21092;DHT22;10704;42.678;23.288;2023-02-03T02:36:32;1.70;99.90
21092;DHT22;10704;42.678;23.288;2023-02-03T02:39:02;1.60;99.90
21092;DHT22;10704;42.678;23.288;2023-02-03T02:41:46;1.50;99.90
21092;DHT22;10704;42.678;23.288;2023-02-03T02:44:20;1.50;99.90
21092;DHT22;10704;42.678;23.288;2023-02-03T02:46:52;1.50;99.90
21092;DHT22;10704;42.678;23.288;2023-02-03T02:49:24;1.50;99.90
21092;DHT22;10704;42.678;23.288;2023-02-03T02:51:52;1.50;99.90
21092;DHT22;10704;42.678;23.288;2023-02-03T02:54:21;1.50;99.90
21092;DHT22;10704;42.678;23.288;2023-02-03T02:56:52;1.50;99.90
21092;DHT22;10704;42.678;23.288;2023-02-03T02:59:20;1.50;99.90
21092;DHT22;10704;42.678;23.288;2023-02-03T03:01:46;1.50;99.90
21092;DHT22;10704;42.678;23.288;2023-02-03T03:04:15;1.50;99.90
21092;DHT22;10704;42.678;23.288;2023-02-03T03:06:47;1.50;99.90
21092;DHT22;10704;42.678;23.288;2023-02-03T03:09:20;1.60;99.90
21092;DHT22;10704;42.678;23.288;2023-02-03T03:11:55;1.60;99.90
21092;DHT22;10704;42.678;23.288;2023-02-03T03:14:22;1.50;99.90
21092;DHT22;10704;42.678;23.288;2023-02-03T03:16:59;1.50;99.90
21092;DHT22;10704;42.678;23.288;2023-02-03T03:19:31;1.50;99.90
21092;DHT22;10704;42.678;23.288;2023-02-03T03:22:02;1.50;99.90
21092;DHT22;10704;42.678;23.288;2023-02-03T03:24:31;1.50;99.90
21092;DHT22;10704;42.678;23.288;2023-02-03T03:27:04;1.50;99.90
21092;DHT22;10704;42.678;23.288;2023-02-03T03:29:39;1.50;99.90
21092;DHT22;10704;42.678;23.288;2023-02-03T03:32:07;1.50;99.90
21092;DHT22;10704;42.678;23.288;2023-02-03T03:34:34;1.50;99.90
21092;DHT22;10704;42.678;23.288;2023-02-03T03:37:05;1.50;99.90
21092;DHT22;10704;42.678;23.288;2023-02-03T03:39:44;1.50;99.90
21092;DHT22;10704;42.678;23.288;2023-02-03T03:42:22;1.50;99.90
21092;DHT22;10704;42.678;23.288;2023-02-03T03:44:57;1.40;99.90
21092;DHT22;10704;42.678;23.288;2023-02-03T03:47:34;1.40;99.90
21092;DHT22;10704;42.678;23.288;2023-02-03T03:50:03;1.40;99.90
21092;DHT22;10704;42.678;23.288;2023-02-03T03:52:32;1.40;99.90
21092;DHT22;10704;42.678;23.288;2023-02-03T03:55:03;1.40;99.90
21092;DHT22;10704;42.678;23.288;2023-02-03T03:57:44;1.40;99.90
21092;DHT22;10704;42.678;23.288;2023-02-03T04:00:15;1.30;99.90
21092;DHT22;10704;42.678;23.288;2023-02-03T04:02:45;1.50;99.90
21092;DHT22;10704;42.678;23.288;2023-02-03T04:05:13;1.40;99.90
21092;DHT22;10704;42.678;23.288;2023-02-03T04:07:44;1.40;99.90
21092;DHT22;10704;42.678;23.288;2023-02-03T04:10:33;1.30;99.90
21092;DHT22;10704;42.678;23.288;2023-02-03T04:13:00;1.30;99.90
21092;DHT22;10704;42.678;23.288;2023-02-03T04:15:26;1.30;99.90
21092;DHT22;10704;42.678;23.288;2023-02-03T04:17:52;1.20;99.90
21092;DHT22;10704;42.678;23.288;2023-02-03T04:20:19;1.20;99.90
21092;DHT22;10704;42.678;23.288;2023-02-03T04:22:46;1.20;99.90
21092;DHT22;10704;42.678;23.288;2023-02-03T04:25:12;1.20;99.90
21092;DHT22;10704;42.678;23.288;2023-02-03T04:27:38;1.30;99.90
21092;DHT22;10704;42.678;23.288;2023-02-03T04:30:04;1.20;99.90
21092;DHT22;10704;42.678;23.288;2023-02-03T04:32:30;1.20;99.90
21092;DHT22;10704;42.678;23.288;2023-02-03T04:34:57;1.20;99.90
21092;DHT22;10704;42.678;23.288;2023-02-03T04:37:24;1.20;99.90
21092;DHT22;10704;42.678;23.288;2023-02-03T04:39:52;1.20;99.90
21092;DHT22;10704;42.678;23.288;2023-02-03T04:42:39;1.20;99.90
21092;DHT22;10704;42.678;23.288;2023-02-03T04:45:07;1.20;99.90
21092;DHT22;10704;42.678;23.288;2023-02-03T04:47:34;1.20;99.90
21092;DHT22;10704;42.678;23.288;2023-02-03T04:50:00;1.20;99.90
21092;DHT22;10704;42.678;23.288;2023-02-03T04:52:26;1.20;99.90
21092;DHT22;10704;42.678;23.288;2023-02-03T04:54:51;1.20;99.90
21092;DHT22;10704;42.678;23.288;2023-02-03T04:57:17;1.20;99.90
21092;DHT22;10704;42.678;23.288;2023-02-03T04:59:43;1.30;99.90
21092;DHT22;10704;42.678;23.288;2023-02-03T05:02:09;1.30;99.90
21092;DHT22;10704;42.678;23.288;2023-02-03T05:04:35;1.30;99.90
21092;DHT22;10704;42.678;23.288;2023-02-03T05:07:01;1.30;99.90
21092;DHT22;10704;42.678;23.288;2023-02-03T05:09:27;1.30;99.90
21092;DHT22;10704;42.678;23.288;2023-02-03T05:11:53;1.40;99.90
21092;DHT22;10704;42.678;23.288;2023-02-03T05:14:19;1.40;99.90
21092;DHT22;10704;42.678;23.288;2023-02-03T05:16:45;1.30;99.90
21092;DHT22;10704;42.678;23.288;2023-02-03T05:19:12;1.30;99.90
21092;DHT22;10704;42.678;23.288;2023-02-03T05:21:37;1.30;99.90
21092;DHT22;10704;42.678;23.288;2023-02-03T05:24:04;1.30;99.90
21092;DHT22;10704;42.678;23.288;2023-02-03T05:26:33;1.30;99.90
21092;DHT22;10704;42.678;23.288;2023-02-03T05:28:59;1.30;99.90
21092;DHT22;10704;42.678;23.288;2023-02-03T05:31:25;1.30;99.90
21092;DHT22;10704;42.678;23.288;2023-02-03T05:33:51;1.30;99.90
21092;DHT22;10704;42.678;23.288;2023-02-03T05:36:17;1.30;99.90
21092;DHT22;10704;42.678;23.288;2023-02-03T05:38:43;1.30;99.90
21092;DHT22;10704;42.678;23.288;2023-02-03T05:41:11;1.30;99.90
21092;DHT22;10704;42.678;23.288;2023-02-03T05:43:55;1.30;99.90
21092;DHT22;10704;42.678;23.288;2023-02-03T05:46:21;1.20;99.90
21092;DHT22;10704;42.678;23.288;2023-02-03T05:48:47;1.20;99.90
21092;DHT22;10704;42.678;23.288;2023-02-03T05:51:13;1.20;99.90
21092;DHT22;10704;42.678;23.288;2023-02-03T05:53:39;1.10;99.90
21092;DHT22;10704;42.678;23.288;2023-02-03T05:56:05;1.20;99.90
21092;DHT22;10704;42.678;23.288;2023-02-03T05:58:31;1.10;99.90
21092;DHT22;10704;42.678;23.288;2023-02-03T06:00:57;1.10;99.90
21092;DHT22;10704;42.678;23.288;2023-02-03T06:03:23;1.10;99.90
21092;DHT22;10704;42.678;23.288;2023-02-03T06:05:49;1.10;99.90
21092;DHT22;10704;42.678;23.288;2023-02-03T06:08:15;1.10;99.90
21092;DHT22;10704;42.678;23.288;2023-02-03T06:10:41;1.20;99.90
21092;DHT22;10704;42.678;23.288;2023-02-03T06:13:12;1.20;99.90
21092;DHT22;10704;42.678;23.288;2023-02-03T06:15:38;1.30;99.90
21092;DHT22;10704;42.678;23.288;2023-02-03T06:18:05;1.30;99.90
21092;DHT22;10704;42.678;23.288;2023-02-03T06:20:32;1.40;99.90
21092;DHT22;10704;42.678;23.288;2023-02-03T06:22:58;1.30;99.90
21092;DHT22;10704;42.678;23.288;2023-02-03T06:25:24;1.40;99.90
21092;DHT22;10704;42.678;23.288;2023-02-03T06:27:50;1.30;99.90
21092;DHT22;10704;42.678;23.288;2023-02-03T06:30:16;1.40;99.90
21092;DHT22;10704;42.678;23.288;2023-02-03T06:32:42;1.50;99.90
21092;DHT22;10704;42.678;23.288;2023-02-03T06:35:08;1.60;99.90
21092;DHT22;10704;42.678;23.288;2023-02-03T06:37:34;1.50;99.90
21092;DHT22;10704;42.678;23.288;2023-02-03T06:40:04;1.60;99.90
21092;DHT22;10704;42.678;23.288;2023-02-03T06:42:30;1.60;99.90
21092;DHT22;10704;42.678;23.288;2023-02-03T06:44:56;1.70;99.90
21092;DHT22;10704;42.678;23.288;2023-02-03T06:47:22;1.90;99.90
21092;DHT22;10704;42.678;23.288;2023-02-03T06:49:48;2.00;99.90
21092;DHT22;10704;42.678;23.288;2023-02-03T06:52:14;2.00;99.90
21092;DHT22;10704;42.678;23.288;2023-02-03T06:54:40;2.10;99.90
21092;DHT22;10704;42.678;23.288;2023-02-03T06:57:06;2.20;99.90
21092;DHT22;10704;42.678;23.288;2023-02-03T06:59:32;2.10;99.90
21092;DHT22;10704;42.678;23.288;2023-02-03T07:01:58;2.10;99.90
21092;DHT22;10704;42.678;23.288;2023-02-03T07:04:24;2.10;99.90
21092;DHT22;10704;42.678;23.288;2023-02-03T07:06:53;2.30;99.90
21092;DHT22;10704;42.678;23.288;2023-02-03T07:09:19;2.20;99.90
21092;DHT22;10704;42.678;23.288;2023-02-03T07:11:45;2.20;99.90
21092;DHT22;10704;42.678;23.288;2023-02-03T07:14:10;2.50;99.90
21092;DHT22;10704;42.678;23.288;2023-02-03T07:16:36;2.40;99.90
21092;DHT22;10704;42.678;23.288;2023-02-03T07:19:04;2.70;99.90
21092;DHT22;10704;42.678;23.288;2023-02-03T07:21:30;2.70;99.90
21092;DHT22;10704;42.678;23.288;2023-02-03T07:23:56;2.80;99.90
21092;DHT22;10704;42.678;23.288;2023-02-03T07:26:22;3.20;99.90
21092;DHT22;10704;42.678;23.288;2023-02-03T07:28:49;3.10;99.90
21092;DHT22;10704;42.678;23.288;2023-02-03T07:31:17;3.20;99.90
21092;DHT22;10704;42.678;23.288;2023-02-03T07:33:43;3.10;99.90
21092;DHT22;10704;42.678;23.288;2023-02-03T07:36:10;3.20;99.90
21092;DHT22;10704;42.678;23.288;2023-02-03T07:38:36;3.50;99.90
21092;DHT22;10704;42.678;23.288;2023-02-03T07:41:03;3.50;99.90
21092;DHT22;10704;42.678;23.288;2023-02-03T07:43:29;3.40;99.90
21092;DHT22;10704;42.678;23.288;2023-02-03T07:45:55;3.40;99.90
21092;DHT22;10704;42.678;23.288;2023-02-03T07:48:21;3.70;99.90
21092;DHT22;10704;42.678;23.288;2023-02-03T07:50:47;4.10;99.90
21092;DHT22;10704;42.678;23.288;2023-02-03T07:53:13;4.10;99.90
21092;DHT22;10704;42.678;23.288;2023-02-03T07:55:40;4.00;99.90
21092;DHT22;10704;42.678;23.288;2023-02-03T07:58:06;4.20;99.90
21092;DHT22;10704;42.678;23.288;2023-02-03T08:00:33;4.40;99.90
21092;DHT22;10704;42.678;23.288;2023-02-03T08:02:59;4.70;99.90
21092;DHT22;10704;42.678;23.288;2023-02-03T08:05:24;4.90;99.90
21092;DHT22;10704;42.678;23.288;2023-02-03T08:07:50;4.90;99.90
21092;DHT22;10704;42.678;23.288;2023-02-03T08:10:16;4.90;99.90
21092;DHT22;10704;42.678;23.288;2023-02-03T08:12:43;4.90;99.90
21092;DHT22;10704;42.678;23.288;2023-02-03T08:15:11;5.00;99.90
21092;DHT22;10704;42.678;23.288;2023-02-03T08:17:37;5.10;99.90
21092;DHT22;10704;42.678;23.288;2023-02-03T08:20:09;5.70;99.90
21092;DHT22;10704;42.678;23.288;2023-02-03T08:22:36;5.40;99.90
21092;DHT22;10704;42.678;23.288;2023-02-03T08:25:02;5.70;99.90
21092;DHT22;10704;42.678;23.288;2023-02-03T08:27:29;6.10;99.70
21092;DHT22;10704;42.678;23.288;2023-02-03T08:29:56;5.90;98.50
21092;DHT22;10704;42.678;23.288;2023-02-03T08:32:22;6.00;98.90
21092;DHT22;10704;42.678;23.288;2023-02-03T08:34:49;5.70;98.30
21092;DHT22;10704;42.678;23.288;2023-02-03T08:37:17;5.80;98.20
21092;DHT22;10704;42.678;23.288;2023-02-03T08:39:43;6.20;96.80
21092;DHT22;10704;42.678;23.288;2023-02-03T08:42:10;6.50;96.40
21092;DHT22;10704;42.678;23.288;2023-02-03T08:44:36;5.80;96.40
21092;DHT22;10704;42.678;23.288;2023-02-03T08:47:04;6.30;96.20
21092;DHT22;10704;42.678;23.288;2023-02-03T08:49:30;6.20;96.00
21092;DHT22;10704;42.678;23.288;2023-02-03T08:51:57;5.80;96.60
21092;DHT22;10704;42.678;23.288;2023-02-03T08:54:23;5.80;97.00
21092;DHT22;10704;42.678;23.288;2023-02-03T08:56:50;6.20;97.60
21092;DHT22;10704;42.678;23.288;2023-02-03T08:59:16;6.80;96.60
21092;DHT22;10704;42.678;23.288;2023-02-03T09:01:43;6.90;96.30
21092;DHT22;10704;42.678;23.288;2023-02-03T09:04:11;7.20;95.40
21092;DHT22;10704;42.678;23.288;2023-02-03T09:06:37;6.00;96.70
21092;DHT22;10704;42.678;23.288;2023-02-03T09:09:03;5.30;98.80
21092;DHT22;10704;42.678;23.288;2023-02-03T09:11:29;5.90;99.90
21092;DHT22;10704;42.678;23.288;2023-02-03T09:13:55;5.20;99.60
21092;DHT22;10704;42.678;23.288;2023-02-03T09:16:23;5.10;99.90
21092;DHT22;10704;42.678;23.288;2023-02-03T09:18:50;6.40;98.70
21092;DHT22;10704;42.678;23.288;2023-02-03T09:21:16;6.80;97.00
21092;DHT22;10704;42.678;23.288;2023-02-03T09:23:43;6.10;97.90
21092;DHT22;10704;42.678;23.288;2023-02-03T09:26:11;6.80;97.60
21092;DHT22;10704;42.678;23.288;2023-02-03T09:28:38;7.50;96.00
21092;DHT22;10704;42.678;23.288;2023-02-03T09:31:12;6.80;95.10
21092;DHT22;10704;42.678;23.288;2023-02-03T09:33:38;5.70;97.60
21092;DHT22;10704;42.678;23.288;2023-02-03T09:36:05;6.50;97.20
21092;DHT22;10704;42.678;23.288;2023-02-03T09:38:31;6.70;96.40
21092;DHT22;10704;42.678;23.288;2023-02-03T09:43:46;6.70;95.50
21092;DHT22;10704;42.678;23.288;2023-02-03T09:46:18;7.60;93.70
21092;DHT22;10704;42.678;23.288;2023-02-03T09:48:57;8.00;92.40
21092;DHT22;10704;42.678;23.288;2023-02-03T09:51:40;8.50;90.60
21092;DHT22;10704;42.678;23.288;2023-02-03T09:54:15;7.10;91.20
21092;DHT22;10704;42.678;23.288;2023-02-03T09:56:43;7.00;91.70
21092;DHT22;10704;42.678;23.288;2023-02-03T09:59:18;7.10;92.90
21092;DHT22;10704;42.678;23.288;2023-02-03T10:01:48;7.20;91.20
21092;DHT22;10704;42.678;23.288;2023-02-03T10:06:44;7.90;89.50
21092;DHT22;10704;42.678;23.288;2023-02-03T10:12:15;6.30;91.40
21092;DHT22;10704;42.678;23.288;2023-02-03T10:17:59;6.00;93.20
21092;DHT22;10704;42.678;23.288;2023-02-03T10:20:40;5.70;94.30
21092;DHT22;10704;42.678;23.288;2023-02-03T10:23:34;5.40;94.90
21092;DHT22;10704;42.678;23.288;2023-02-03T10:26:02;5.30;94.90
21092;DHT22;10704;42.678;23.288;2023-02-03T10:28:43;6.10;93.20
21092;DHT22;10704;42.678;23.288;2023-02-03T10:31:19;6.10;93.60
21092;DHT22;10704;42.678;23.288;2023-02-03T10:33:46;5.80;93.90
21092;DHT22;10704;42.678;23.288;2023-02-03T10:36:22;5.40;94.60
21092;DHT22;10704;42.678;23.288;2023-02-03T10:39:11;5.20;94.10
21092;DHT22;10704;42.678;23.288;2023-02-03T10:41:41;4.70;93.70
21092;DHT22;10704;42.678;23.288;2023-02-03T10:44:09;4.70;94.00
21092;DHT22;10704;42.678;23.288;2023-02-03T10:46:38;4.60;94.90
21092;DHT22;10704;42.678;23.288;2023-02-03T10:49:08;4.40;95.70
21092;DHT22;10704;42.678;23.288;2023-02-03T10:51:37;4.50;96.00
21092;DHT22;10704;42.678;23.288;2023-02-03T10:54:26;4.40;95.30
21092;DHT22;10704;42.678;23.288;2023-02-03T10:56:54;4.30;95.00
21092;DHT22;10704;42.678;23.288;2023-02-03T10:59:34;4.40;95.30
21092;DHT22;10704;42.678;23.288;2023-02-03T11:02:09;4.50;94.60
21092;DHT22;10704;42.678;23.288;2023-02-03T11:04:44;4.30;93.40
21092;DHT22;10704;42.678;23.288;2023-02-03T11:07:23;4.30;93.30
21092;DHT22;10704;42.678;23.288;2023-02-03T11:09:49;4.20;93.40
21092;DHT22;10704;42.678;23.288;2023-02-03T11:12:18;4.20;93.50
21092;DHT22;10704;42.678;23.288;2023-02-03T11:14:45;4.30;93.20
21092;DHT22;10704;42.678;23.288;2023-02-03T11:17:17;4.30;93.30
21092;DHT22;10704;42.678;23.288;2023-02-03T11:19:46;4.30;93.40
21092;DHT22;10704;42.678;23.288;2023-02-03T11:24:51;4.10;93.90
21092;DHT22;10704;42.678;23.288;2023-02-03T11:27:18;4.00;94.00
21092;DHT22;10704;42.678;23.288;2023-02-03T11:29:50;3.80;93.40
21092;DHT22;10704;42.678;23.288;2023-02-03T11:32:23;3.90;93.40
21092;DHT22;10704;42.678;23.288;2023-02-03T11:34:57;5.00;92.10
21092;DHT22;10704;42.678;23.288;2023-02-03T11:40:28;6.80;89.30
21092;DHT22;10704;42.678;23.288;2023-02-03T12:31:29;4.90;83.20
21092;DHT22;10704;42.678;23.288;2023-02-03T12:41:33;4.50;84.50
21092;DHT22;10704;42.678;23.288;2023-02-03T12:44:44;4.60;85.30
21092;DHT22;10704;42.678;23.288;2023-02-03T12:47:16;4.50;85.20
21092;DHT22;10704;42.678;23.288;2023-02-03T12:50:13;4.30;86.40
21092;DHT22;10704;42.678;23.288;2023-02-03T12:56:38;4.90;86.30
21092;DHT22;10704;42.678;23.288;2023-02-03T12:59:11;4.70;86.10
21092;DHT22;10704;42.678;23.288;2023-02-03T13:01:48;4.80;88.20
21092;DHT22;10704;42.678;23.288;2023-02-03T13:04:40;4.60;87.60
21092;DHT22;10704;42.678;23.288;2023-02-03T13:10:18;4.40;90.40
21092;DHT22;10704;42.678;23.288;2023-02-03T13:20:25;4.40;90.70
21092;DHT22;10704;42.678;23.288;2023-02-03T13:22:51;4.00;91.40
21092;DHT22;10704;42.678;23.288;2023-02-03T13:41:35;5.10;91.20
21092;DHT22;10704;42.678;23.288;2023-02-03T13:51:42;3.80;92.90
21092;DHT22;10704;42.678;23.288;2023-02-03T13:54:32;3.70;93.40
21092;DHT22;10704;42.678;23.288;2023-02-03T13:57:19;3.70;93.90
21092;DHT22;10704;42.678;23.288;2023-02-03T13:59:45;3.80;94.40
21092;DHT22;10704;42.678;23.288;2023-02-03T14:07:35;3.40;95.00
21092;DHT22;10704;42.678;23.288;2023-02-03T14:16:25;3.70;94.60
21092;DHT22;10704;42.678;23.288;2023-02-03T14:18:51;3.70;94.50
21092;DHT22;10704;42.678;23.288;2023-02-03T14:25:07;3.60;94.40
21092;DHT22;10704;42.678;23.288;2023-02-03T14:27:33;3.50;94.90
21092;DHT22;10704;42.678;23.288;2023-02-03T14:35:19;3.40;95.40
21092;DHT22;10704;42.678;23.288;2023-02-03T14:37:56;3.50;95.10
21092;DHT22;10704;42.678;23.288;2023-02-03T14:40:55;3.30;94.30
21092;DHT22;10704;42.678;23.288;2023-02-03T14:49:17;3.40;92.80
21092;DHT22;10704;42.678;23.288;2023-02-03T14:52:11;3.40;92.10
21092;DHT22;10704;42.678;23.288;2023-02-03T14:59:51;3.20;93.10
21092;DHT22;10704;42.678;23.288;2023-02-03T15:10:42;3.20;93.90
21092;DHT22;10704;42.678;23.288;2023-02-03T15:13:26;3.20;94.60
21092;DHT22;10704;42.678;23.288;2023-02-03T15:19:19;3.20;94.90
21092;DHT22;10704;42.678;23.288;2023-02-03T15:21:47;3.10;95.20
21092;DHT22;10704;42.678;23.288;2023-02-03T15:24:16;3.00;94.20
21092;DHT22;10704;42.678;23.288;2023-02-03T15:30:30;2.90;93.20
21092;DHT22;10704;42.678;23.288;2023-02-03T15:33:05;2.90;93.10
21092;DHT22;10704;42.678;23.288;2023-02-03T15:35:33;2.90;92.70
21092;DHT22;10704;42.678;23.288;2023-02-03T15:39:00;2.80;92.40
21092;DHT22;10704;42.678;23.288;2023-02-03T15:41:07;2.80;92.30
21092;DHT22;10704;42.678;23.288;2023-02-03T15:43:39;2.80;92.60
21092;DHT22;10704;42.678;23.288;2023-02-03T15:53:04;2.70;92.50
21092;DHT22;10704;42.678;23.288;2023-02-03T15:59:23;2.50;92.90
21092;DHT22;10704;42.678;23.288;2023-02-03T16:01:52;2.50;93.20
21092;DHT22;10704;42.678;23.288;2023-02-03T16:04:18;2.50;93.30
21092;DHT22;10704;42.678;23.288;2023-02-03T16:06:47;2.60;93.20
21092;DHT22;10704;42.678;23.288;2023-02-03T16:09:40;2.60;92.70
21092;DHT22;10704;42.678;23.288;2023-02-03T16:14:48;2.50;92.50
21092;DHT22;10704;42.678;23.288;2023-02-03T16:17:34;2.50;92.70
21092;DHT22;10704;42.678;23.288;2023-02-03T16:23:49;2.40;92.90
21092;DHT22;10704;42.678;23.288;2023-02-03T16:37:19;2.20;94.00
21092;DHT22;10704;42.678;23.288;2023-02-03T16:40:04;2.30;94.10
21092;DHT22;10704;42.678;23.288;2023-02-03T16:42:48;2.30;93.90
21092;DHT22;10704;42.678;23.288;2023-02-03T16:45:33;2.20;94.30
21092;DHT22;10704;42.678;23.288;2023-02-03T16:48:17;2.20;93.80
21092;DHT22;10704;42.678;23.288;2023-02-03T16:51:28;2.30;93.50
21092;DHT22;10704;42.678;23.288;2023-02-03T16:53:56;2.30;93.70
21092;DHT22;10704;42.678;23.288;2023-02-03T17:00:11;2.20;94.10
21092;DHT22;10704;42.678;23.288;2023-02-03T17:02:37;2.30;93.60
21092;DHT22;10704;42.678;23.288;2023-02-03T17:05:03;2.30;93.10
21092;DHT22;10704;42.678;23.288;2023-02-03T17:11:19;2.40;92.50
21092;DHT22;10704;42.678;23.288;2023-02-03T17:13:46;2.40;92.10
21092;DHT22;10704;42.678;23.288;2023-02-03T17:16:25;2.40;92.70
21092;DHT22;10704;42.678;23.288;2023-02-03T17:25:49;2.50;91.00
21092;DHT22;10704;42.678;23.288;2023-02-03T17:28:15;2.60;90.80
21092;DHT22;10704;42.678;23.288;2023-02-03T17:30:41;2.60;90.20
21092;DHT22;10704;42.678;23.288;2023-02-03T17:33:08;2.60;90.60
21092;DHT22;10704;42.678;23.288;2023-02-03T17:35:38;2.50;91.40
21092;DHT22;10704;42.678;23.288;2023-02-03T17:38:04;2.40;91.80
21092;DHT22;10704;42.678;23.288;2023-02-03T17:40:30;2.40;91.30
21092;DHT22;10704;42.678;23.288;2023-02-03T17:42:56;2.50;91.40
21092;DHT22;10704;42.678;23.288;2023-02-03T17:45:22;2.50;91.30
21092;DHT22;10704;42.678;23.288;2023-02-03T17:47:49;2.50;90.50
21092;DHT22;10704;42.678;23.288;2023-02-03T17:50:15;2.70;89.20
21092;DHT22;10704;42.678;23.288;2023-02-03T17:52:43;2.90;87.40
21092;DHT22;10704;42.678;23.288;2023-02-03T17:55:09;3.10;86.40
21092;DHT22;10704;42.678;23.288;2023-02-03T17:57:36;3.20;85.70
21092;DHT22;10704;42.678;23.288;2023-02-03T18:00:03;3.20;86.70
21092;DHT22;10704;42.678;23.288;2023-02-03T18:02:38;3.10;86.60
21092;DHT22;10704;42.678;23.288;2023-02-03T18:05:04;3.10;85.40
21092;DHT22;10704;42.678;23.288;2023-02-03T18:07:30;3.10;86.50
21092;DHT22;10704;42.678;23.288;2023-02-03T18:09:56;3.10;87.10
21092;DHT22;10704;42.678;23.288;2023-02-03T18:12:21;3.20;86.30
21092;DHT22;10704;42.678;23.288;2023-02-03T18:14:47;3.30;86.60
21092;DHT22;10704;42.678;23.288;2023-02-03T18:17:13;3.40;86.30
21092;DHT22;10704;42.678;23.288;2023-02-03T18:19:39;3.40;87.00
21092;DHT22;10704;42.678;23.288;2023-02-03T18:22:06;3.50;85.90
21092;DHT22;10704;42.678;23.288;2023-02-03T18:24:32;3.40;85.90
21092;DHT22;10704;42.678;23.288;2023-02-03T18:26:58;3.40;86.00
21092;DHT22;10704;42.678;23.288;2023-02-03T18:33:13;3.50;84.80
21092;DHT22;10704;42.678;23.288;2023-02-03T18:35:39;3.50;85.60
21092;DHT22;10704;42.678;23.288;2023-02-03T18:38:05;3.40;85.90
21092;DHT22;10704;42.678;23.288;2023-02-03T18:40:32;3.50;86.00
21092;DHT22;10704;42.678;23.288;2023-02-03T18:43:01;3.50;85.70
21092;DHT22;10704;42.678;23.288;2023-02-03T18:45:28;3.50;85.70
21092;DHT22;10704;42.678;23.288;2023-02-03T18:47:54;3.40;85.80
21092;DHT22;10704;42.678;23.288;2023-02-03T18:50:20;3.40;86.30
21092;DHT22;10704;42.678;23.288;2023-02-03T18:52:46;3.40;86.70
21092;DHT22;10704;42.678;23.288;2023-02-03T18:55:12;3.40;87.70
21092;DHT22;10704;42.678;23.288;2023-02-03T18:57:38;3.40;86.30
21092;DHT22;10704;42.678;23.288;2023-02-03T19:00:05;3.40;85.60
21092;DHT22;10704;42.678;23.288;2023-02-03T19:02:32;3.20;86.50
21092;DHT22;10704;42.678;23.288;2023-02-03T19:04:58;3.20;86.30
21092;DHT22;10704;42.678;23.288;2023-02-03T19:07:25;3.10;86.60
21092;DHT22;10704;42.678;23.288;2023-02-03T19:09:50;3.00;86.90
21092;DHT22;10704;42.678;23.288;2023-02-03T19:12:17;3.00;87.40
21092;DHT22;10704;42.678;23.288;2023-02-03T19:14:43;3.10;86.40
21092;DHT22;10704;42.678;23.288;2023-02-03T19:17:09;3.10;87.00
21092;DHT22;10704;42.678;23.288;2023-02-03T19:19:35;3.20;86.50
21092;DHT22;10704;42.678;23.288;2023-02-03T19:22:01;3.30;86.20
21092;DHT22;10704;42.678;23.288;2023-02-03T19:24:27;3.40;85.60
21092;DHT22;10704;42.678;23.288;2023-02-03T19:26:54;3.50;85.70
21092;DHT22;10704;42.678;23.288;2023-02-03T19:29:20;3.40;85.90
21092;DHT22;10704;42.678;23.288;2023-02-03T19:31:46;3.30;86.80
21092;DHT22;10704;42.678;23.288;2023-02-03T19:34:16;3.30;86.70